sensor_id;sensor_type;location;lat;lon;timestamp;P1;durP1;ratioP1;P2;durP2;ratioP2
4486;SDS011;2256;48.740;9.106;2023-04-25T00:02:13;1.00;;;0.80;;
4486;SDS011;2256;48.740;9.106;2023-04-25T00:04:40;1.37;;;1.10;;
4486;SDS011;2256;48.740;9.106;2023-04-25T00:07:06;0.90;;;0.90;;
4486;SDS011;2256;48.740;9.106;2023-04-25T00:09:35;3.60;;;1.40;;
4486;SDS011;2256;48.740;9.106;2023-04-25T00:12:01;1.10;;;1.10;;
4486;SDS011;2256;48.740;9.106;2023-04-25T00:14:29;1.10;;;1.10;;
4486;SDS011;2256;48.740;9.106;2023-04-25T00:16:58;1.90;;;1.67;;
4486;SDS011;2256;48.740;9.106;2023-04-25T00:19:26;1.30;;;1.07;;
4486;SDS011;2256;48.740;9.106;2023-04-25T00:21:53;1.10;;;1.00;;
4486;SDS011;2256;48.740;9.106;2023-04-25T00:24:20;3.27;;;1.40;;
4486;SDS011;2256;48.740;9.106;2023-04-25T00:26:48;2.40;;;1.40;;
4486;SDS011;2256;48.740;9.106;2023-04-25T00:29:15;1.10;;;1.00;;
4486;SDS011;2256;48.740;9.106;2023-04-25T00:31:42;0.93;;;0.90;;
4486;SDS011;2256;48.740;9.106;2023-04-25T00:34:08;1.30;;;1.20;;
4486;SDS011;2256;48.740;9.106;2023-04-25T00:36:35;1.00;;;1.00;;
4486;SDS011;2256;48.740;9.106;2023-04-25T00:39:03;1.87;;;1.13;;
4486;SDS011;2256;48.740;9.106;2023-04-25T00:41:30;1.37;;;1.27;;
4486;SDS011;2256;48.740;9.106;2023-04-25T00:43:58;1.03;;;1.00;;
4486;SDS011;2256;48.740;9.106;2023-04-25T00:46:26;4.00;;;1.10;;
4486;SDS011;2256;48.740;9.106;2023-04-25T00:48:53;1.10;;;1.10;;
4486;SDS011;2256;48.740;9.106;2023-04-25T00:51:20;2.20;;;1.10;;
4486;SDS011;2256;48.740;9.106;2023-04-25T00:53:47;2.33;;;1.50;;
4486;SDS011;2256;48.740;9.106;2023-04-25T00:56:16;1.43;;;1.33;;
4486;SDS011;2256;48.740;9.106;2023-04-25T00:58:43;1.53;;;1.20;;
4486;SDS011;2256;48.740;9.106;2023-04-25T01:01:11;2.40;;;1.30;;
4486;SDS011;2256;48.740;9.106;2023-04-25T01:03:39;0.97;;;0.97;;
4486;SDS011;2256;48.740;9.106;2023-04-25T01:06:07;1.33;;;1.10;;
4486;SDS011;2256;48.740;9.106;2023-04-25T01:08:35;1.53;;;1.43;;
4486;SDS011;2256;48.740;9.106;2023-04-25T01:11:04;1.40;;;1.30;;
4486;SDS011;2256;48.740;9.106;2023-04-25T01:13:31;1.20;;;1.10;;
4486;SDS011;2256;48.740;9.106;2023-04-25T01:15:58;1.37;;;1.20;;
4486;SDS011;2256;48.740;9.106;2023-04-25T01:18:27;1.60;;;1.10;;
4486;SDS011;2256;48.740;9.106;2023-04-25T01:20:55;1.63;;;1.30;;
4486;SDS011;2256;48.740;9.106;2023-04-25T01:23:25;1.37;;;1.27;;
4486;SDS011;2256;48.740;9.106;2023-04-25T01:25:52;2.50;;;1.57;;
4486;SDS011;2256;48.740;9.106;2023-04-25T01:28:20;1.70;;;1.60;;
4486;SDS011;2256;48.740;9.106;2023-04-25T01:30:47;1.40;;;1.30;;
4486;SDS011;2256;48.740;9.106;2023-04-25T01:33:14;1.70;;;1.10;;
4486;SDS011;2256;48.740;9.106;2023-04-25T01:35:42;3.03;;;1.40;;
4486;SDS011;2256;48.740;9.106;2023-04-25T01:38:09;1.63;;;1.53;;
4486;SDS011;2256;48.740;9.106;2023-04-25T01:40:38;1.80;;;1.70;;
4486;SDS011;2256;48.740;9.106;2023-04-25T01:43:07;1.40;;;1.30;;
4486;SDS011;2256;48.740;9.106;2023-04-25T01:45:36;1.83;;;1.13;;
4486;SDS011;2256;48.740;9.106;2023-04-25T01:48:04;2.40;;;1.20;;
4486;SDS011;2256;48.740;9.106;2023-04-25T01:50:32;1.23;;;1.20;;
4486;SDS011;2256;48.740;9.106;2023-04-25T01:53:00;1.60;;;1.50;;
4486;SDS011;2256;48.740;9.106;2023-04-25T01:55:27;1.77;;;1.40;;
4486;SDS011;2256;48.740;9.106;2023-04-25T01:57:56;2.50;;;1.23;;
4486;SDS011;2256;48.740;9.106;2023-04-25T02:00:23;1.50;;;1.27;;
4486;SDS011;2256;48.740;9.106;2023-04-25T02:02:50;2.60;;;1.47;;
4486;SDS011;2256;48.740;9.106;2023-04-25T02:05:18;2.10;;;1.70;;
4486;SDS011;2256;48.740;9.106;2023-04-25T02:07:45;1.33;;;1.23;;
4486;SDS011;2256;48.740;9.106;2023-04-25T02:10:13;1.80;;;1.47;;
4486;SDS011;2256;48.740;9.106;2023-04-25T02:12:40;1.80;;;1.47;;
4486;SDS011;2256;48.740;9.106;2023-04-25T02:15:08;1.47;;;1.37;;
4486;SDS011;2256;48.740;9.106;2023-04-25T02:17:35;1.20;;;1.10;;
4486;SDS011;2256;48.740;9.106;2023-04-25T02:20:02;1.87;;;1.20;;
4486;SDS011;2256;48.740;9.106;2023-04-25T02:22:30;1.60;;;1.23;;
4486;SDS011;2256;48.740;9.106;2023-04-25T02:24:59;2.20;;;1.47;;
4486;SDS011;2256;48.740;9.106;2023-04-25T02:27:25;2.80;;;1.30;;
4486;SDS011;2256;48.740;9.106;2023-04-25T02:29:52;1.63;;;1.33;;
4486;SDS011;2256;48.740;9.106;2023-04-25T02:32:21;1.37;;;1.00;;
4486;SDS011;2256;48.740;9.106;2023-04-25T02:34:48;1.37;;;1.30;;
4486;SDS011;2256;48.740;9.106;2023-04-25T02:37:15;1.63;;;1.53;;
4486;SDS011;2256;48.740;9.106;2023-04-25T02:39:42;0.90;;;0.90;;
4486;SDS011;2256;48.740;9.106;2023-04-25T02:42:08;1.50;;;1.20;;
4486;SDS011;2256;48.740;9.106;2023-04-25T02:44:35;1.50;;;1.40;;
4486;SDS011;2256;48.740;9.106;2023-04-25T02:47:02;1.77;;;1.20;;
4486;SDS011;2256;48.740;9.106;2023-04-25T02:49:30;1.27;;;1.17;;
4486;SDS011;2256;48.740;9.106;2023-04-25T02:51:57;1.23;;;1.13;;
4486;SDS011;2256;48.740;9.106;2023-04-25T02:54:25;1.27;;;1.17;;
4486;SDS011;2256;48.740;9.106;2023-04-25T02:56:51;1.20;;;1.10;;
4486;SDS011;2256;48.740;9.106;2023-04-25T02:59:18;1.40;;;1.30;;
4486;SDS011;2256;48.740;9.106;2023-04-25T03:01:45;1.20;;;1.10;;
4486;SDS011;2256;48.740;9.106;2023-04-25T03:04:12;1.57;;;1.47;;
4486;SDS011;2256;48.740;9.106;2023-04-25T03:06:40;2.87;;;1.13;;
4486;SDS011;2256;48.740;9.106;2023-04-25T03:09:07;3.90;;;1.65;;
4486;SDS011;2256;48.740;9.106;2023-04-25T03:11:34;1.10;;;1.10;;
4486;SDS011;2256;48.740;9.106;2023-04-25T03:14:01;2.20;;;1.23;;
4486;SDS011;2256;48.740;9.106;2023-04-25T03:16:28;1.20;;;1.10;;
4486;SDS011;2256;48.740;9.106;2023-04-25T03:18:54;1.83;;;1.43;;
4486;SDS011;2256;48.740;9.106;2023-04-25T03:21:21;2.17;;;1.10;;
4486;SDS011;2256;48.740;9.106;2023-04-25T03:23:49;1.23;;;1.13;;
4486;SDS011;2256;48.740;9.106;2023-04-25T03:26:16;0.90;;;0.90;;
4486;SDS011;2256;48.740;9.106;2023-04-25T03:28:43;1.10;;;1.07;;
4486;SDS011;2256;48.740;9.106;2023-04-25T03:31:10;1.40;;;1.27;;
4486;SDS011;2256;48.740;9.106;2023-04-25T03:33:36;2.87;;;1.83;;
4486;SDS011;2256;48.740;9.106;2023-04-25T03:36:03;1.63;;;1.52;;
4486;SDS011;2256;48.740;9.106;2023-04-25T03:38:31;1.60;;;1.50;;
4486;SDS011;2256;48.740;9.106;2023-04-25T03:41:00;2.50;;;1.30;;
4486;SDS011;2256;48.740;9.106;2023-04-25T03:43:29;1.40;;;1.30;;
4486;SDS011;2256;48.740;9.106;2023-04-25T03:45:55;5.30;;;1.53;;
4486;SDS011;2256;48.740;9.106;2023-04-25T03:48:22;2.10;;;1.90;;
4486;SDS011;2256;48.740;9.106;2023-04-25T03:50:50;1.30;;;1.20;;
4486;SDS011;2256;48.740;9.106;2023-04-25T03:53:17;1.20;;;1.07;;
4486;SDS011;2256;48.740;9.106;2023-04-25T03:55:44;1.33;;;1.23;;
4486;SDS011;2256;48.740;9.106;2023-04-25T03:58:12;1.27;;;1.17;;
4486;SDS011;2256;48.740;9.106;2023-04-25T04:00:39;1.20;;;1.10;;
4486;SDS011;2256;48.740;9.106;2023-04-25T04:03:06;1.03;;;0.93;;
4486;SDS011;2256;48.740;9.106;2023-04-25T04:05:34;1.23;;;1.13;;
4486;SDS011;2256;48.740;9.106;2023-04-25T04:08:02;4.60;;;1.37;;
4486;SDS011;2256;48.740;9.106;2023-04-25T04:10:29;5.27;;;1.20;;
4486;SDS011;2256;48.740;9.106;2023-04-25T04:12:55;1.10;;;1.10;;
4486;SDS011;2256;48.740;9.106;2023-04-25T04:15:24;1.47;;;1.00;;
4486;SDS011;2256;48.740;9.106;2023-04-25T04:17:50;1.40;;;1.27;;
4486;SDS011;2256;48.740;9.106;2023-04-25T04:20:17;5.07;;;1.87;;
4486;SDS011;2256;48.740;9.106;2023-04-25T04:22:44;1.97;;;1.40;;
4486;SDS011;2256;48.740;9.106;2023-04-25T04:25:10;1.77;;;1.53;;
4486;SDS011;2256;48.740;9.106;2023-04-25T04:27:37;1.17;;;1.07;;
4486;SDS011;2256;48.740;9.106;2023-04-25T04:30:06;1.70;;;1.60;;
4486;SDS011;2256;48.740;9.106;2023-04-25T04:32:34;1.58;;;1.10;;
4486;SDS011;2256;48.740;9.106;2023-04-25T04:35:02;1.13;;;1.07;;
4486;SDS011;2256;48.740;9.106;2023-04-25T04:37:29;1.50;;;1.40;;
4486;SDS011;2256;48.740;9.106;2023-04-25T04:39:57;1.30;;;1.20;;
4486;SDS011;2256;48.740;9.106;2023-04-25T04:42:24;2.40;;;1.30;;
4486;SDS011;2256;48.740;9.106;2023-04-25T04:44:52;1.57;;;1.47;;
4486;SDS011;2256;48.740;9.106;2023-04-25T04:47:21;1.63;;;1.40;;
4486;SDS011;2256;48.740;9.106;2023-04-25T04:49:50;1.80;;;1.70;;
4486;SDS011;2256;48.740;9.106;2023-04-25T04:52:16;4.53;;;1.87;;
4486;SDS011;2256;48.740;9.106;2023-04-25T04:54:43;3.53;;;1.97;;
4486;SDS011;2256;48.740;9.106;2023-04-25T04:57:10;1.33;;;1.23;;
4486;SDS011;2256;48.740;9.106;2023-04-25T04:59:37;1.37;;;1.27;;
4486;SDS011;2256;48.740;9.106;2023-04-25T05:02:04;1.97;;;1.53;;
4486;SDS011;2256;48.740;9.106;2023-04-25T05:04:30;1.37;;;1.27;;
4486;SDS011;2256;48.740;9.106;2023-04-25T05:06:59;2.30;;;1.57;;
4486;SDS011;2256;48.740;9.106;2023-04-25T05:09:26;1.20;;;1.10;;
4486;SDS011;2256;48.740;9.106;2023-04-25T05:11:53;7.40;;;1.87;;
4486;SDS011;2256;48.740;9.106;2023-04-25T05:14:20;1.20;;;1.20;;
4486;SDS011;2256;48.740;9.106;2023-04-25T05:16:47;2.03;;;1.80;;
4486;SDS011;2256;48.740;9.106;2023-04-25T05:19:15;1.67;;;1.53;;
4486;SDS011;2256;48.740;9.106;2023-04-25T05:21:43;1.17;;;1.10;;
4486;SDS011;2256;48.740;9.106;2023-04-25T05:24:11;2.60;;;1.67;;
4486;SDS011;2256;48.740;9.106;2023-04-25T05:26:38;3.40;;;1.50;;
4486;SDS011;2256;48.740;9.106;2023-04-25T05:29:05;1.77;;;1.63;;
4486;SDS011;2256;48.740;9.106;2023-04-25T05:31:32;2.70;;;1.50;;
4486;SDS011;2256;48.740;9.106;2023-04-25T05:33:59;1.93;;;1.70;;
4486;SDS011;2256;48.740;9.106;2023-04-25T05:36:26;1.57;;;1.40;;
4486;SDS011;2256;48.740;9.106;2023-04-25T05:38:53;1.57;;;1.47;;
4486;SDS011;2256;48.740;9.106;2023-04-25T05:41:22;2.60;;;1.60;;
4486;SDS011;2256;48.740;9.106;2023-04-25T05:43:50;4.57;;;1.83;;
4486;SDS011;2256;48.740;9.106;2023-04-25T05:46:16;2.17;;;1.97;;
4486;SDS011;2256;48.740;9.106;2023-04-25T05:48:43;1.87;;;1.57;;
4486;SDS011;2256;48.740;9.106;2023-04-25T05:51:11;2.77;;;1.90;;
4486;SDS011;2256;48.740;9.106;2023-04-25T05:53:38;2.50;;;1.73;;
4486;SDS011;2256;48.740;9.106;2023-04-25T05:56:04;2.00;;;1.07;;
4486;SDS011;2256;48.740;9.106;2023-04-25T05:58:33;2.43;;;1.87;;
4486;SDS011;2256;48.740;9.106;2023-04-25T06:00:59;2.47;;;1.50;;
4486;SDS011;2256;48.740;9.106;2023-04-25T06:03:26;1.30;;;1.20;;
4486;SDS011;2256;48.740;9.106;2023-04-25T06:05:55;1.73;;;1.50;;
4486;SDS011;2256;48.740;9.106;2023-04-25T06:08:22;1.87;;;1.77;;
4486;SDS011;2256;48.740;9.106;2023-04-25T06:10:50;2.27;;;1.60;;
4486;SDS011;2256;48.740;9.106;2023-04-25T06:13:17;1.57;;;1.47;;
4486;SDS011;2256;48.740;9.106;2023-04-25T06:15:47;1.10;;;1.10;;
4486;SDS011;2256;48.740;9.106;2023-04-25T06:18:14;3.10;;;1.20;;
4486;SDS011;2256;48.740;9.106;2023-04-25T06:20:41;3.70;;;1.97;;
4486;SDS011;2256;48.740;9.106;2023-04-25T06:23:08;1.97;;;1.40;;
4486;SDS011;2256;48.740;9.106;2023-04-25T06:25:35;3.70;;;1.70;;
4486;SDS011;2256;48.740;9.106;2023-04-25T06:28:02;1.40;;;1.30;;
4486;SDS011;2256;48.740;9.106;2023-04-25T06:30:29;1.43;;;1.33;;
4486;SDS011;2256;48.740;9.106;2023-04-25T06:32:57;2.37;;;1.83;;
4486;SDS011;2256;48.740;9.106;2023-04-25T06:35:24;4.53;;;1.60;;
4486;SDS011;2256;48.740;9.106;2023-04-25T06:37:51;3.37;;;1.57;;
4486;SDS011;2256;48.740;9.106;2023-04-25T06:40:17;2.77;;;2.00;;
4486;SDS011;2256;48.740;9.106;2023-04-25T06:42:44;4.43;;;1.30;;
4486;SDS011;2256;48.740;9.106;2023-04-25T06:45:11;2.03;;;1.50;;
4486;SDS011;2256;48.740;9.106;2023-04-25T06:47:38;1.73;;;1.43;;
4486;SDS011;2256;48.740;9.106;2023-04-25T06:50:07;2.10;;;1.57;;
4486;SDS011;2256;48.740;9.106;2023-04-25T06:52:34;1.50;;;1.33;;
4486;SDS011;2256;48.740;9.106;2023-04-25T06:55:01;1.67;;;1.43;;
4486;SDS011;2256;48.740;9.106;2023-04-25T06:57:27;1.53;;;1.43;;
4486;SDS011;2256;48.740;9.106;2023-04-25T06:59:54;1.57;;;1.47;;
4486;SDS011;2256;48.740;9.106;2023-04-25T07:02:21;2.83;;;1.50;;
4486;SDS011;2256;48.740;9.106;2023-04-25T07:04:48;6.77;;;2.13;;
4486;SDS011;2256;48.740;9.106;2023-04-25T07:07:16;2.00;;;1.40;;
4486;SDS011;2256;48.740;9.106;2023-04-25T07:09:43;1.00;;;0.90;;
4486;SDS011;2256;48.740;9.106;2023-04-25T07:12:09;2.50;;;1.70;;
4486;SDS011;2256;48.740;9.106;2023-04-25T07:14:37;7.03;;;2.30;;
4486;SDS011;2256;48.740;9.106;2023-04-25T07:17:04;2.40;;;1.50;;
4486;SDS011;2256;48.740;9.106;2023-04-25T07:19:32;1.57;;;1.47;;
4486;SDS011;2256;48.740;9.106;2023-04-25T07:21:59;2.07;;;1.60;;
4486;SDS011;2256;48.740;9.106;2023-04-25T07:24:27;2.00;;;1.50;;
4486;SDS011;2256;48.740;9.106;2023-04-25T07:26:54;6.07;;;1.73;;
4486;SDS011;2256;48.740;9.106;2023-04-25T07:29:21;1.83;;;1.70;;
4486;SDS011;2256;48.740;9.106;2023-04-25T07:31:49;3.13;;;1.97;;
4486;SDS011;2256;48.740;9.106;2023-04-25T07:34:15;4.97;;;1.87;;
4486;SDS011;2256;48.740;9.106;2023-04-25T07:36:43;2.40;;;1.50;;
4486;SDS011;2256;48.740;9.106;2023-04-25T07:39:11;2.10;;;1.90;;
4486;SDS011;2256;48.740;9.106;2023-04-25T07:41:39;2.53;;;1.60;;
4486;SDS011;2256;48.740;9.106;2023-04-25T07:44:05;2.60;;;1.60;;
4486;SDS011;2256;48.740;9.106;2023-04-25T07:46:32;1.47;;;1.37;;
4486;SDS011;2256;48.740;9.106;2023-04-25T07:49:00;1.80;;;1.40;;
4486;SDS011;2256;48.740;9.106;2023-04-25T07:51:28;3.23;;;1.70;;
4486;SDS011;2256;48.740;9.106;2023-04-25T07:53:56;4.13;;;2.20;;
4486;SDS011;2256;48.740;9.106;2023-04-25T07:56:24;2.90;;;1.40;;
4486;SDS011;2256;48.740;9.106;2023-04-25T07:58:52;2.07;;;1.67;;
4486;SDS011;2256;48.740;9.106;2023-04-25T08:01:19;3.23;;;1.80;;
4486;SDS011;2256;48.740;9.106;2023-04-25T08:03:47;1.40;;;1.30;;
4486;SDS011;2256;48.740;9.106;2023-04-25T08:06:13;1.30;;;1.20;;
4486;SDS011;2256;48.740;9.106;2023-04-25T08:08:40;3.40;;;1.57;;
4486;SDS011;2256;48.740;9.106;2023-04-25T08:11:08;2.87;;;1.93;;
4486;SDS011;2256;48.740;9.106;2023-04-25T08:13:35;1.80;;;1.70;;
4486;SDS011;2256;48.740;9.106;2023-04-25T08:16:04;1.80;;;1.50;;
4486;SDS011;2256;48.740;9.106;2023-04-25T08:18:30;3.97;;;1.50;;
4486;SDS011;2256;48.740;9.106;2023-04-25T08:20:57;1.73;;;1.63;;
4486;SDS011;2256;48.740;9.106;2023-04-25T08:23:25;2.50;;;2.30;;
4486;SDS011;2256;48.740;9.106;2023-04-25T08:25:52;2.07;;;1.97;;
4486;SDS011;2256;48.740;9.106;2023-04-25T08:28:19;3.07;;;2.17;;
4486;SDS011;2256;48.740;9.106;2023-04-25T08:30:46;2.87;;;1.70;;
4486;SDS011;2256;48.740;9.106;2023-04-25T08:33:14;5.30;;;2.20;;
4486;SDS011;2256;48.740;9.106;2023-04-25T08:35:41;9.53;;;2.93;;
4486;SDS011;2256;48.740;9.106;2023-04-25T08:38:08;6.20;;;2.33;;
4486;SDS011;2256;48.740;9.106;2023-04-25T08:40:37;1.97;;;1.70;;
4486;SDS011;2256;48.740;9.106;2023-04-25T08:43:06;3.27;;;2.00;;
4486;SDS011;2256;48.740;9.106;2023-04-25T08:45:36;2.20;;;1.97;;
4486;SDS011;2256;48.740;9.106;2023-04-25T08:48:06;7.63;;;2.60;;
4486;SDS011;2256;48.740;9.106;2023-04-25T08:50:37;3.73;;;2.57;;
4486;SDS011;2256;48.740;9.106;2023-04-25T08:53:07;3.80;;;2.10;;
4486;SDS011;2256;48.740;9.106;2023-04-25T08:55:38;4.03;;;2.60;;
4486;SDS011;2256;48.740;9.106;2023-04-25T08:58:07;5.23;;;2.10;;
4486;SDS011;2256;48.740;9.106;2023-04-25T09:00:37;2.33;;;2.13;;
4486;SDS011;2256;48.740;9.106;2023-04-25T09:03:04;9.30;;;2.07;;
4486;SDS011;2256;48.740;9.106;2023-04-25T09:05:31;3.13;;;1.97;;
4486;SDS011;2256;48.740;9.106;2023-04-25T09:08:00;4.30;;;2.73;;
4486;SDS011;2256;48.740;9.106;2023-04-25T09:10:27;6.27;;;2.30;;
4486;SDS011;2256;48.740;9.106;2023-04-25T09:13:04;5.97;;;3.47;;
4486;SDS011;2256;48.740;9.106;2023-04-25T09:15:34;1.70;;;1.60;;
4486;SDS011;2256;48.740;9.106;2023-04-25T09:18:14;2.20;;;1.57;;
4486;SDS011;2256;48.740;9.106;2023-04-25T09:20:48;2.93;;;2.00;;
4486;SDS011;2256;48.740;9.106;2023-04-25T09:23:16;1.60;;;1.50;;
4486;SDS011;2256;48.740;9.106;2023-04-25T09:25:46;1.43;;;1.20;;
4486;SDS011;2256;48.740;9.106;2023-04-25T09:28:14;1.83;;;1.73;;
4486;SDS011;2256;48.740;9.106;2023-04-25T09:30:41;2.03;;;1.70;;
4486;SDS011;2256;48.740;9.106;2023-04-25T09:33:09;1.60;;;1.50;;
4486;SDS011;2256;48.740;9.106;2023-04-25T09:35:37;1.60;;;1.50;;
4486;SDS011;2256;48.740;9.106;2023-04-25T09:38:09;2.33;;;1.60;;
4486;SDS011;2256;48.740;9.106;2023-04-25T09:40:42;2.13;;;1.93;;
4486;SDS011;2256;48.740;9.106;2023-04-25T09:43:09;3.63;;;2.27;;
4486;SDS011;2256;48.740;9.106;2023-04-25T09:45:40;2.83;;;1.73;;
4486;SDS011;2256;48.740;9.106;2023-04-25T09:48:12;1.83;;;1.50;;
4486;SDS011;2256;48.740;9.106;2023-04-25T09:50:43;1.93;;;1.80;;
4486;SDS011;2256;48.740;9.106;2023-04-25T09:53:10;1.20;;;1.20;;
4486;SDS011;2256;48.740;9.106;2023-04-25T09:55:37;1.50;;;1.40;;
4486;SDS011;2256;48.740;9.106;2023-04-25T09:58:06;1.53;;;1.37;;
4486;SDS011;2256;48.740;9.106;2023-04-25T10:00:35;2.47;;;1.60;;
4486;SDS011;2256;48.740;9.106;2023-04-25T10:03:03;0.93;;;0.93;;
4486;SDS011;2256;48.740;9.106;2023-04-25T10:05:32;1.60;;;1.50;;
4486;SDS011;2256;48.740;9.106;2023-04-25T10:08:03;1.27;;;1.17;;
4486;SDS011;2256;48.740;9.106;2023-04-25T10:10:31;1.00;;;0.90;;
4486;SDS011;2256;48.740;9.106;2023-04-25T10:13:05;0.90;;;0.90;;
4486;SDS011;2256;48.740;9.106;2023-04-25T10:15:34;0.90;;;0.90;;
4486;SDS011;2256;48.740;9.106;2023-04-25T10:18:01;1.10;;;0.90;;
4486;SDS011;2256;48.740;9.106;2023-04-25T10:20:29;1.00;;;1.00;;
4486;SDS011;2256;48.740;9.106;2023-04-25T10:22:57;0.80;;;0.80;;
4486;SDS011;2256;48.740;9.106;2023-04-25T10:25:29;1.10;;;0.80;;
4486;SDS011;2256;48.740;9.106;2023-04-25T10:27:57;1.23;;;1.03;;
4486;SDS011;2256;48.740;9.106;2023-04-25T10:30:27;0.60;;;0.60;;
4486;SDS011;2256;48.740;9.106;2023-04-25T10:32:54;0.90;;;0.87;;
4486;SDS011;2256;48.740;9.106;2023-04-25T10:35:24;0.80;;;0.80;;
4486;SDS011;2256;48.740;9.106;2023-04-25T10:37:56;0.80;;;0.80;;
4486;SDS011;2256;48.740;9.106;2023-04-25T10:40:25;0.70;;;0.70;;
4486;SDS011;2256;48.740;9.106;2023-04-25T10:46:03;0.70;;;0.70;;
4486;SDS011;2256;48.740;9.106;2023-04-25T10:48:43;1.10;;;1.00;;
4486;SDS011;2256;48.740;9.106;2023-04-25T10:51:15;1.43;;;1.03;;
4486;SDS011;2256;48.740;9.106;2023-04-25T10:53:43;1.53;;;0.90;;
4486;SDS011;2256;48.740;9.106;2023-04-25T10:56:11;1.13;;;0.70;;
4486;SDS011;2256;48.740;9.106;2023-04-25T10:58:41;0.70;;;0.70;;
4486;SDS011;2256;48.740;9.106;2023-04-25T11:01:10;1.30;;;1.00;;
4486;SDS011;2256;48.740;9.106;2023-04-25T11:03:40;0.83;;;0.83;;
4486;SDS011;2256;48.740;9.106;2023-04-25T11:06:11;1.60;;;1.20;;
4486;SDS011;2256;48.740;9.106;2023-04-25T11:08:47;1.17;;;1.07;;
4486;SDS011;2256;48.740;9.106;2023-04-25T11:11:16;1.00;;;0.90;;
4486;SDS011;2256;48.740;9.106;2023-04-25T11:13:43;3.23;;;1.10;;
4486;SDS011;2256;48.740;9.106;2023-04-25T11:16:11;1.70;;;1.30;;
4486;SDS011;2256;48.740;9.106;2023-04-25T11:18:40;1.87;;;1.00;;
4486;SDS011;2256;48.740;9.106;2023-04-25T11:21:07;1.00;;;1.00;;
4486;SDS011;2256;48.740;9.106;2023-04-25T11:23:34;1.47;;;1.17;;
4486;SDS011;2256;48.740;9.106;2023-04-25T11:26:01;0.90;;;0.90;;
4486;SDS011;2256;48.740;9.106;2023-04-25T11:28:29;1.87;;;1.20;;
4486;SDS011;2256;48.740;9.106;2023-04-25T11:30:56;0.80;;;0.80;;
4486;SDS011;2256;48.740;9.106;2023-04-25T11:33:25;1.10;;;1.00;;
4486;SDS011;2256;48.740;9.106;2023-04-25T11:35:53;1.07;;;0.93;;
4486;SDS011;2256;48.740;9.106;2023-04-25T11:38:21;1.17;;;1.07;;
4486;SDS011;2256;48.740;9.106;2023-04-25T11:40:51;1.10;;;1.10;;
4486;SDS011;2256;48.740;9.106;2023-04-25T11:43:19;1.20;;;1.07;;
4486;SDS011;2256;48.740;9.106;2023-04-25T11:45:47;1.23;;;1.13;;
4486;SDS011;2256;48.740;9.106;2023-04-25T11:48:14;1.07;;;1.03;;
4486;SDS011;2256;48.740;9.106;2023-04-25T11:50:42;3.13;;;1.20;;
4486;SDS011;2256;48.740;9.106;2023-04-25T11:53:09;3.33;;;1.60;;
4486;SDS011;2256;48.740;9.106;2023-04-25T11:55:37;0.87;;;0.80;;
4486;SDS011;2256;48.740;9.106;2023-04-25T11:58:05;1.77;;;1.53;;
4486;SDS011;2256;48.740;9.106;2023-04-25T12:00:33;1.20;;;1.10;;
4486;SDS011;2256;48.740;9.106;2023-04-25T12:03:01;1.80;;;1.20;;
4486;SDS011;2256;48.740;9.106;2023-04-25T12:05:29;1.70;;;1.60;;
4486;SDS011;2256;48.740;9.106;2023-04-25T12:07:59;2.47;;;1.93;;
4486;SDS011;2256;48.740;9.106;2023-04-25T12:10:37;2.33;;;1.50;;
4486;SDS011;2256;48.740;9.106;2023-04-25T12:15:48;3.20;;;1.80;;
4486;SDS011;2256;48.740;9.106;2023-04-25T12:18:18;1.63;;;1.17;;
4486;SDS011;2256;48.740;9.106;2023-04-25T12:20:48;3.53;;;1.90;;
4486;SDS011;2256;48.740;9.106;2023-04-25T12:23:25;2.90;;;1.73;;
4486;SDS011;2256;48.740;9.106;2023-04-25T12:25:53;3.73;;;1.40;;
4486;SDS011;2256;48.740;9.106;2023-04-25T12:28:21;3.20;;;2.30;;
4486;SDS011;2256;48.740;9.106;2023-04-25T12:30:53;7.40;;;2.07;;
4486;SDS011;2256;48.740;9.106;2023-04-25T12:33:25;1.53;;;1.43;;
4486;SDS011;2256;48.740;9.106;2023-04-25T12:35:53;3.87;;;1.90;;
4486;SDS011;2256;48.740;9.106;2023-04-25T12:38:23;7.17;;;1.53;;
4486;SDS011;2256;48.740;9.106;2023-04-25T12:40:51;3.63;;;2.13;;
4486;SDS011;2256;48.740;9.106;2023-04-25T12:43:20;3.13;;;2.10;;
4486;SDS011;2256;48.740;9.106;2023-04-25T12:45:48;3.67;;;2.10;;
4486;SDS011;2256;48.740;9.106;2023-04-25T12:48:16;3.80;;;2.20;;
4486;SDS011;2256;48.740;9.106;2023-04-25T12:50:43;1.50;;;1.40;;
4486;SDS011;2256;48.740;9.106;2023-04-25T12:53:13;2.03;;;1.30;;
4486;SDS011;2256;48.740;9.106;2023-04-25T12:55:43;2.80;;;1.83;;
4486;SDS011;2256;48.740;9.106;2023-04-25T12:58:12;2.47;;;2.00;;
4486;SDS011;2256;48.740;9.106;2023-04-25T13:00:41;2.43;;;1.97;;
4486;SDS011;2256;48.740;9.106;2023-04-25T13:03:09;2.87;;;2.27;;
4486;SDS011;2256;48.740;9.106;2023-04-25T13:05:39;4.40;;;2.23;;
4486;SDS011;2256;48.740;9.106;2023-04-25T13:08:07;3.10;;;1.80;;
4486;SDS011;2256;48.740;9.106;2023-04-25T13:10:35;2.80;;;2.13;;
4486;SDS011;2256;48.740;9.106;2023-04-25T13:13:05;4.10;;;2.43;;
4486;SDS011;2256;48.740;9.106;2023-04-25T13:15:32;2.80;;;1.87;;
4486;SDS011;2256;48.740;9.106;2023-04-25T13:17:59;1.70;;;1.30;;
4486;SDS011;2256;48.740;9.106;2023-04-25T13:20:25;9.03;;;3.13;;
4486;SDS011;2256;48.740;9.106;2023-04-25T13:22:52;2.90;;;2.10;;
4486;SDS011;2256;48.740;9.106;2023-04-25T13:25:20;3.53;;;2.30;;
4486;SDS011;2256;48.740;9.106;2023-04-25T13:27:47;3.87;;;2.20;;
4486;SDS011;2256;48.740;9.106;2023-04-25T13:30:15;2.90;;;1.80;;
4486;SDS011;2256;48.740;9.106;2023-04-25T13:32:42;3.63;;;2.30;;
4486;SDS011;2256;48.740;9.106;2023-04-25T13:35:09;4.37;;;3.10;;
4486;SDS011;2256;48.740;9.106;2023-04-25T13:37:38;3.57;;;2.90;;
4486;SDS011;2256;48.740;9.106;2023-04-25T13:40:06;2.50;;;1.97;;
4486;SDS011;2256;48.740;9.106;2023-04-25T13:42:35;3.40;;;2.17;;
4486;SDS011;2256;48.740;9.106;2023-04-25T13:45:02;3.90;;;2.53;;
4486;SDS011;2256;48.740;9.106;2023-04-25T13:47:30;4.30;;;2.77;;
4486;SDS011;2256;48.740;9.106;2023-04-25T13:49:57;7.03;;;3.43;;
4486;SDS011;2256;48.740;9.106;2023-04-25T13:52:24;4.20;;;2.47;;
4486;SDS011;2256;48.740;9.106;2023-04-25T13:54:51;3.33;;;2.20;;
4486;SDS011;2256;48.740;9.106;2023-04-25T13:57:18;5.33;;;2.87;;
4486;SDS011;2256;48.740;9.106;2023-04-25T13:59:45;2.63;;;2.03;;
4486;SDS011;2256;48.740;9.106;2023-04-25T14:02:12;5.93;;;3.20;;
4486;SDS011;2256;48.740;9.106;2023-04-25T14:04:40;2.93;;;2.40;;
4486;SDS011;2256;48.740;9.106;2023-04-25T14:07:07;6.10;;;3.07;;
4486;SDS011;2256;48.740;9.106;2023-04-25T14:09:35;3.70;;;2.70;;
4486;SDS011;2256;48.740;9.106;2023-04-25T14:12:03;8.10;;;4.07;;
4486;SDS011;2256;48.740;9.106;2023-04-25T14:14:32;4.30;;;2.97;;
4486;SDS011;2256;48.740;9.106;2023-04-25T14:16:58;4.43;;;2.40;;
4486;SDS011;2256;48.740;9.106;2023-04-25T14:19:26;6.07;;;3.17;;
4486;SDS011;2256;48.740;9.106;2023-04-25T14:21:56;5.40;;;3.10;;
4486;SDS011;2256;48.740;9.106;2023-04-25T14:24:23;3.23;;;2.33;;
4486;SDS011;2256;48.740;9.106;2023-04-25T14:26:50;3.03;;;2.47;;
4486;SDS011;2256;48.740;9.106;2023-04-25T14:29:18;3.20;;;2.50;;
4486;SDS011;2256;48.740;9.106;2023-04-25T14:31:44;4.07;;;2.30;;
4486;SDS011;2256;48.740;9.106;2023-04-25T14:34:12;3.50;;;2.30;;
4486;SDS011;2256;48.740;9.106;2023-04-25T14:36:39;2.67;;;2.20;;
4486;SDS011;2256;48.740;9.106;2023-04-25T14:39:09;1.80;;;1.70;;
4486;SDS011;2256;48.740;9.106;2023-04-25T14:41:37;3.83;;;1.80;;
4486;SDS011;2256;48.740;9.106;2023-04-25T14:44:04;2.73;;;1.97;;
4486;SDS011;2256;48.740;9.106;2023-04-25T14:46:31;2.33;;;2.13;;
4486;SDS011;2256;48.740;9.106;2023-04-25T14:48:58;2.90;;;1.70;;
4486;SDS011;2256;48.740;9.106;2023-04-25T14:51:25;2.90;;;1.50;;
4486;SDS011;2256;48.740;9.106;2023-04-25T14:53:52;4.80;;;2.60;;
4486;SDS011;2256;48.740;9.106;2023-04-25T14:56:21;2.03;;;1.90;;
4486;SDS011;2256;48.740;9.106;2023-04-25T14:58:48;3.40;;;1.93;;
4486;SDS011;2256;48.740;9.106;2023-04-25T15:01:15;8.57;;;2.43;;
4486;SDS011;2256;48.740;9.106;2023-04-25T15:03:42;2.30;;;1.47;;
4486;SDS011;2256;48.740;9.106;2023-04-25T15:06:09;3.07;;;1.90;;
4486;SDS011;2256;48.740;9.106;2023-04-25T15:08:36;2.40;;;1.80;;
4486;SDS011;2256;48.740;9.106;2023-04-25T15:11:07;3.07;;;1.83;;
4486;SDS011;2256;48.740;9.106;2023-04-25T15:13:37;3.23;;;2.03;;
4486;SDS011;2256;48.740;9.106;2023-04-25T15:16:05;4.50;;;2.07;;
4486;SDS011;2256;48.740;9.106;2023-04-25T15:18:32;3.93;;;2.30;;
4486;SDS011;2256;48.740;9.106;2023-04-25T15:20:59;2.70;;;1.97;;
4486;SDS011;2256;48.740;9.106;2023-04-25T15:23:26;4.60;;;2.30;;
4486;SDS011;2256;48.740;9.106;2023-04-25T15:25:53;1.97;;;1.67;;